createdAt,value
2022-11-05T00:00:14.768Z,89.23
2022-11-05T00:02:41.437Z,89.26
2022-11-05T00:05:10.984Z,89.23
2022-11-05T00:07:48.531Z,89.10
2022-11-05T00:10:36.546Z,89.07
2022-11-05T00:13:03.395Z,89.62
2022-11-05T00:15:31.936Z,89.82
2022-11-05T00:17:58.702Z,89.67
2022-11-05T00:20:25.421Z,89.93
2022-11-05T00:23:00.276Z,89.62
2022-11-05T00:25:26.565Z,89.50
2022-11-05T00:27:53.472Z,89.31
2022-11-05T00:30:22.815Z,89.42
2022-11-05T00:32:51.027Z,89.08
2022-11-05T00:35:19.946Z,89.48
2022-11-05T00:37:50.103Z,89.52
2022-11-05T00:40:17.565Z,89.48
2022-11-05T00:42:44.662Z,89.58
2022-11-05T00:45:11.105Z,89.69
2022-11-05T00:47:39.317Z,90.01
2022-11-05T00:50:06.185Z,90.28
2022-11-05T00:52:32.509Z,90.35
2022-11-05T00:54:59.045Z,90.26
2022-11-05T00:57:25.481Z,90.06
2022-11-05T00:59:51.795Z,90.24
2022-11-05T01:02:18.371Z,90.28
2022-11-05T01:04:44.922Z,90.26
2022-11-05T01:07:11.492Z,90.31
2022-11-05T01:09:38.029Z,90.22
2022-11-05T01:12:04.426Z,90.04
2022-11-05T01:14:30.806Z,89.99
2022-11-05T01:16:57.097Z,90.03
2022-11-05T01:19:23.498Z,90.27
2022-11-05T01:21:49.815Z,90.18
2022-11-05T01:24:16.244Z,90.35
2022-11-05T01:26:42.596Z,90.20
2022-11-05T01:29:10.983Z,90.08
2022-11-05T01:31:37.543Z,90.02
2022-11-05T01:34:03.857Z,89.90
2022-11-05T01:36:30.294Z,89.80
2022-11-05T01:38:56.676Z,89.73
2022-11-05T01:41:23.180Z,89.84
2022-11-05T01:43:54.567Z,89.96
2022-11-05T01:46:29.185Z,89.84
2022-11-05T01:49:03.252Z,90.12
2022-11-05T01:51:30.872Z,90.01
2022-11-05T01:54:02.956Z,90.09
2022-11-05T01:56:40.904Z,89.90
2022-11-05T01:59:14.522Z,89.56
2022-11-05T02:01:41.213Z,89.80
2022-11-05T02:04:12.262Z,90.12
2022-11-05T02:06:41.478Z,90.15
2022-11-05T02:09:22.161Z,90.14
2022-11-05T02:11:50.963Z,90.10
2022-11-05T02:14:18.095Z,90.25
2022-11-05T02:16:44.471Z,90.36
2022-11-05T02:19:41.788Z,90.15
2022-11-05T02:22:39.013Z,90.23
2022-11-05T02:25:33.938Z,90.40
2022-11-05T02:28:42.488Z,90.76
2022-11-05T02:31:23.304Z,90.72
2022-11-05T02:34:25.704Z,90.71
2022-11-05T02:37:23.438Z,90.74
2022-11-05T02:40:24.855Z,90.55
2022-11-05T02:43:10.481Z,90.14
2022-11-05T02:46:03.631Z,90.30
2022-11-05T02:48:44.369Z,90.41
2022-11-05T02:51:31.265Z,90.36
2022-11-05T02:54:38.164Z,90.46
2022-11-05T02:57:05.635Z,90.12
2022-11-05T02:59:32.025Z,90.46
2022-11-05T03:02:01.738Z,90.23
2022-11-05T03:04:29.352Z,90.60
2022-11-05T03:07:23.670Z,90.88
2022-11-05T03:09:59.827Z,91.04
2022-11-05T03:12:39.375Z,90.99
2022-11-05T03:15:08.658Z,91.04
2022-11-05T03:17:44.431Z,90.90
2022-11-05T03:20:37.379Z,91.13
2022-11-05T03:23:20.058Z,90.97
2022-11-05T03:26:07.531Z,91.07
2022-11-05T03:28:38.692Z,90.81
2022-11-05T03:31:07.808Z,90.86
2022-11-05T03:33:37.619Z,90.76
2022-11-05T03:36:10.181Z,90.86
2022-11-05T03:38:41.858Z,90.95
2022-11-05T03:41:12.217Z,90.73
2022-11-05T03:43:44.144Z,90.78
2022-11-05T03:46:44.937Z,90.89
2022-11-05T03:49:19.154Z,91.24
2022-11-05T03:52:07.666Z,91.19
2022-11-05T03:54:34.885Z,91.28
2022-11-05T03:57:12.822Z,91.33
2022-11-05T03:59:47.557Z,91.15
2022-11-05T04:02:16.438Z,90.90
2022-11-05T04:04:43.037Z,90.82
2022-11-05T04:07:10.711Z,90.75
2022-11-05T04:09:37.822Z,90.67
2022-11-05T04:12:04.526Z,90.43
2022-11-05T04:14:31.015Z,90.75
2022-11-05T04:16:57.520Z,90.81
2022-11-05T04:19:26.266Z,91.13
2022-11-05T04:21:52.759Z,91.14
2022-11-05T04:24:19.205Z,91.04
2022-11-05T04:26:45.611Z,91.11
2022-11-05T04:29:11.965Z,91.35
2022-11-05T04:31:38.785Z,91.34
2022-11-05T04:34:05.441Z,91.27
2022-11-05T04:36:32.022Z,91.38
2022-11-05T04:38:58.719Z,91.12
2022-11-05T04:41:25.131Z,91.35
2022-11-05T04:43:51.632Z,91.41
2022-11-05T04:46:17.971Z,91.32
2022-11-05T04:48:44.791Z,91.01
2022-11-05T04:51:11.158Z,91.02
2022-11-05T04:53:37.541Z,90.24
2022-11-05T04:56:10.897Z,90.37
2022-11-05T04:58:42.115Z,90.33
2022-11-05T05:01:14.021Z,90.47
2022-11-05T05:03:40.728Z,91.05
2022-11-05T05:06:07.574Z,90.81
2022-11-05T05:08:34.327Z,90.86
2022-11-05T05:11:05.682Z,90.84
2022-11-05T05:13:32.303Z,90.66
2022-11-05T05:15:59.355Z,90.42
2022-11-05T05:18:26.112Z,90.36
2022-11-05T05:20:57.781Z,90.62
2022-11-05T05:23:24.313Z,90.74
2022-11-05T05:25:50.738Z,90.48
2022-11-05T05:28:17.160Z,90.74
2022-11-05T05:30:43.457Z,90.58
2022-11-05T05:33:09.926Z,90.43
2022-11-05T05:35:36.791Z,90.40
2022-11-05T05:38:03.349Z,90.58
2022-11-05T05:40:29.735Z,90.71
2022-11-05T05:42:56.151Z,90.67
2022-11-05T05:45:22.566Z,90.88
2022-11-05T05:47:48.907Z,91.22
2022-11-05T05:50:15.607Z,91.31
2022-11-05T05:52:42.174Z,91.11
2022-11-05T05:55:09.153Z,91.31
2022-11-05T05:57:35.694Z,91.67
2022-11-05T06:00:02.067Z,91.64
2022-11-05T06:02:30.842Z,91.32
2022-11-05T06:04:57.798Z,91.15
2022-11-05T06:07:24.128Z,91.10
2022-11-05T06:09:50.505Z,91.23
2022-11-05T06:12:17.046Z,91.29
2022-11-05T06:14:43.406Z,91.06
2022-11-05T06:17:09.790Z,91.32
2022-11-05T06:19:36.171Z,91.40
2022-11-05T06:22:02.530Z,91.50
2022-11-05T06:24:29.057Z,91.41
2022-11-05T06:26:55.635Z,91.08
2022-11-05T06:29:22.025Z,91.19
2022-11-05T06:31:48.456Z,91.27
2022-11-05T06:34:14.851Z,91.41
2022-11-05T06:36:41.203Z,91.38
2022-11-05T06:39:11.574Z,91.61
2022-11-05T06:42:04.117Z,91.48
2022-11-05T06:44:25.086Z,91.70
2022-11-05T06:46:51.503Z,91.70
2022-11-05T06:49:17.846Z,91.72
2022-11-05T06:51:44.733Z,91.46
2022-11-05T06:54:11.049Z,91.74
2022-11-05T06:56:37.402Z,91.80
2022-11-05T06:59:03.977Z,91.79
2022-11-05T07:01:30.401Z,91.88
2022-11-05T07:03:56.837Z,91.70
2022-11-05T07:06:23.293Z,91.68
2022-11-05T07:08:49.763Z,91.99
2022-11-05T07:11:16.070Z,91.79
2022-11-05T07:13:42.477Z,91.39
2022-11-05T07:16:09.080Z,91.10
2022-11-05T07:18:35.915Z,91.18
2022-11-05T07:21:02.441Z,91.41
2022-11-05T07:23:28.874Z,91.50
2022-11-05T07:25:55.262Z,91.39
2022-11-05T07:28:21.613Z,91.07
2022-11-05T07:30:48.135Z,90.92
2022-11-05T07:33:14.869Z,90.81
2022-11-05T07:35:41.411Z,90.70
2022-11-05T07:38:11.318Z,90.82
2022-11-05T07:40:37.734Z,90.86
2022-11-05T07:43:04.115Z,90.83
2022-11-05T07:45:31.463Z,91.36
2022-11-05T07:48:00.535Z,91.00
2022-11-05T07:50:30.060Z,91.16
2022-11-05T07:53:02.246Z,90.78
2022-11-05T07:55:29.202Z,90.75
2022-11-05T07:57:55.758Z,90.65
2022-11-05T08:00:23.619Z,90.38
2022-11-05T08:03:18.219Z,90.26
2022-11-05T08:05:47.726Z,89.92
2022-11-05T08:08:19.219Z,88.59
2022-11-05T08:10:46.315Z,88.58
2022-11-05T08:13:13.690Z,89.08
2022-11-05T08:15:40.981Z,88.51
2022-11-05T08:18:11.970Z,85.66
2022-11-05T08:20:39.373Z,85.52
2022-11-05T08:23:06.005Z,86.00
2022-11-05T08:25:32.432Z,86.67
2022-11-05T08:28:01.590Z,85.58
2022-11-05T08:30:30.045Z,86.71
2022-11-05T08:33:01.249Z,86.73
2022-11-05T08:35:29.384Z,86.67
2022-11-05T08:37:59.539Z,86.84
2022-11-05T08:40:26.739Z,86.45
2022-11-05T08:42:56.117Z,86.25
2022-11-05T08:45:22.485Z,86.19
2022-11-05T08:47:49.142Z,85.84
2022-11-05T08:50:15.574Z,85.96
2022-11-05T08:52:42.886Z,86.37
2022-11-05T08:55:09.572Z,84.02
2022-11-05T08:57:38.136Z,83.40
2022-11-05T09:00:05.204Z,84.20
2022-11-05T09:02:31.653Z,82.16
2022-11-05T09:04:58.002Z,80.34
2022-11-05T09:07:24.400Z,77.08
2022-11-05T09:09:50.894Z,72.11
2022-11-05T09:12:17.453Z,72.59
2022-11-05T09:14:43.875Z,73.41
2022-11-05T09:17:18.837Z,72.39
2022-11-05T09:19:45.656Z,71.57
2022-11-05T09:22:12.156Z,72.68
2022-11-05T09:24:39.529Z,74.07
2022-11-05T09:27:07.372Z,73.07
2022-11-05T09:29:33.966Z,72.07
2022-11-05T09:32:00.318Z,69.87
2022-11-05T09:34:27.202Z,70.84
2022-11-05T09:36:54.362Z,71.77
2022-11-05T09:39:20.776Z,71.03
2022-11-05T09:41:48.131Z,70.61
2022-11-05T09:44:23.865Z,71.61
2022-11-05T09:46:58.637Z,71.75
2022-11-05T09:49:33.866Z,71.76
2022-11-05T09:52:00.382Z,71.45
2022-11-05T09:54:30.340Z,71.60
2022-11-05T09:56:56.957Z,71.92
2022-11-05T09:59:41.203Z,73.40
2022-11-05T10:02:32.162Z,72.87
2022-11-05T10:05:08.076Z,73.12
2022-11-05T10:07:45.290Z,73.35
2022-11-05T10:10:41.271Z,73.40
2022-11-05T10:13:33.342Z,73.73
2022-11-05T10:16:11.544Z,74.00
2022-11-05T10:18:41.378Z,74.96
2022-11-05T10:21:16.641Z,73.22
2022-11-05T10:23:44.694Z,72.98
2022-11-05T10:26:15.710Z,71.87
2022-11-05T10:28:42.339Z,71.90
2022-11-05T10:31:13.294Z,72.70
2022-11-05T10:33:44.410Z,73.69
2022-11-05T10:36:16.585Z,74.36
2022-11-05T10:38:43.117Z,74.64
2022-11-05T10:41:12.228Z,74.11
2022-11-05T10:43:51.248Z,73.89
2022-11-05T10:46:30.683Z,72.85
2022-11-05T10:49:17.568Z,72.65
2022-11-05T10:51:44.502Z,71.99
2022-11-05T10:54:19.490Z,67.98
2022-11-05T10:56:46.541Z,67.96
2022-11-05T10:59:30.154Z,64.78
2022-11-05T11:02:18.928Z,64.41
2022-11-05T11:04:51.793Z,62.31
2022-11-05T11:07:22.721Z,64.13
2022-11-05T11:09:50.970Z,62.62
2022-11-05T11:12:23.794Z,62.62
2022-11-05T11:15:12.980Z,62.62
2022-11-05T11:17:39.753Z,63.77
2022-11-05T11:20:31.697Z,63.70
2022-11-05T11:23:15.026Z,64.56
2022-11-05T11:25:57.780Z,64.62
2022-11-05T11:28:32.868Z,62.93
2022-11-05T11:31:10.517Z,62.33
2022-11-05T11:33:39.122Z,60.06
2022-11-05T11:36:06.666Z,61.17
2022-11-05T11:38:35.118Z,59.66
2022-11-05T11:41:25.805Z,58.67
2022-11-05T11:43:59.446Z,60.03
2022-11-05T11:46:26.166Z,57.48
2022-11-05T11:48:52.597Z,58.30
2022-11-05T11:51:30.342Z,59.48
2022-11-05T11:53:58.907Z,58.87
2022-11-05T11:56:25.247Z,60.15
2022-11-05T11:58:54.173Z,61.16
2022-11-05T12:01:23.439Z,61.16
2022-11-05T12:04:04.828Z,61.64
2022-11-05T12:06:41.087Z,59.73
2022-11-05T12:09:16.534Z,58.93
2022-11-05T12:11:50.680Z,57.78
2022-11-05T12:14:36.230Z,55.82
2022-11-05T12:17:32.062Z,56.70
2022-11-05T12:19:58.366Z,56.33
2022-11-05T12:22:46.249Z,56.13
2022-11-05T12:25:28.961Z,54.64
2022-11-05T12:28:14.204Z,54.50
2022-11-05T12:31:22.217Z,52.85
2022-11-05T12:34:03.012Z,50.56
2022-11-05T12:36:50.338Z,51.42
2022-11-05T12:39:30.260Z,51.35
2022-11-05T12:42:08.093Z,51.79
2022-11-05T12:45:31.177Z,53.50
2022-11-05T12:48:07.666Z,54.50
2022-11-05T12:50:47.794Z,53.21
2022-11-05T12:53:26.032Z,54.05
2022-11-05T12:55:53.727Z,54.46
2022-11-05T12:58:30.184Z,55.28
2022-11-05T13:01:06.028Z,56.78
2022-11-05T13:03:50.825Z,57.71
2022-11-05T13:06:23.889Z,57.84
2022-11-05T13:09:14.880Z,57.59
2022-11-05T13:11:53.498Z,56.25
2022-11-05T13:14:25.783Z,57.69
2022-11-05T13:17:08.133Z,59.59
2022-11-05T13:19:48.586Z,60.63
2022-11-05T13:22:20.766Z,60.47
2022-11-05T13:24:55.220Z,59.65
2022-11-05T13:28:00.303Z,61.88
2022-11-05T13:30:33.537Z,62.09
2022-11-05T13:33:13.791Z,62.71
2022-11-05T13:36:12.746Z,62.77
2022-11-05T13:38:44.634Z,63.19
2022-11-05T13:41:38.922Z,63.42
2022-11-05T13:44:33.138Z,62.62
2022-11-05T13:47:22.745Z,63.00
2022-11-05T13:49:59.011Z,63.67
2022-11-05T13:52:46.155Z,63.25
2022-11-05T13:55:48.667Z,63.90
2022-11-05T13:59:05.343Z,64.13
2022-11-05T14:01:31.961Z,63.04
2022-11-05T14:03:58.678Z,62.86
2022-11-05T14:06:28.761Z,63.28
2022-11-05T14:09:01.032Z,63.12
2022-11-05T14:11:34.940Z,63.21
2022-11-05T14:14:08.365Z,63.88
2022-11-05T14:17:06.948Z,63.73
2022-11-05T14:20:07.636Z,63.34
2022-11-05T14:22:33.962Z,63.75
2022-11-05T14:25:02.146Z,63.46
2022-11-05T14:27:28.503Z,62.90
2022-11-05T14:29:55.364Z,62.86
2022-11-05T14:32:21.611Z,62.24
2022-11-05T14:35:33.468Z,60.47
2022-11-05T14:38:00.268Z,59.15
2022-11-05T14:40:35.804Z,59.56
2022-11-05T14:43:07.664Z,58.67
2022-11-05T14:46:09.666Z,59.70
2022-11-05T14:48:47.846Z,60.62
2022-11-05T14:51:28.421Z,60.41
2022-11-05T14:54:06.197Z,60.69
2022-11-05T14:56:51.821Z,60.20
2022-11-05T14:59:24.096Z,60.49
2022-11-05T15:01:50.610Z,61.08
2022-11-05T15:04:31.308Z,57.69
2022-11-05T15:07:03.498Z,59.31
2022-11-05T15:09:54.425Z,57.64
2022-11-05T15:12:42.108Z,58.30
2022-11-05T15:15:29.933Z,59.22
2022-11-05T15:18:25.612Z,60.35
2022-11-05T15:20:56.206Z,61.22
2022-11-05T15:23:26.052Z,62.21
2022-11-05T15:26:01.468Z,62.57
2022-11-05T15:28:38.493Z,63.16
2022-11-05T15:31:20.490Z,63.18
2022-11-05T15:33:47.913Z,63.45
2022-11-05T15:36:30.237Z,64.18
2022-11-05T15:39:27.328Z,65.12
2022-11-05T15:41:45.098Z,65.75
2022-11-05T15:44:38.432Z,66.00
2022-11-05T15:47:30.527Z,65.80
2022-11-05T15:49:59.017Z,65.62
2022-11-05T15:52:33.278Z,65.86
2022-11-05T15:55:16.813Z,66.83
2022-11-05T15:57:51.358Z,66.39
2022-11-05T16:00:23.768Z,66.04
2022-11-05T16:03:15.845Z,66.57
2022-11-05T16:05:45.339Z,65.85
2022-11-05T16:08:17.042Z,66.04
2022-11-05T16:10:48.636Z,65.88
2022-11-05T16:13:37.693Z,66.00
2022-11-05T16:16:20.716Z,65.92
2022-11-05T16:18:47.721Z,65.51
2022-11-05T16:21:16.385Z,65.78
2022-11-05T16:23:44.423Z,65.47
2022-11-05T16:26:55.853Z,65.91
2022-11-05T16:29:16.501Z,66.36
2022-11-05T16:31:49.780Z,66.94
2022-11-05T16:34:32.154Z,67.72
2022-11-05T16:36:59.399Z,67.95
2022-11-05T16:39:26.370Z,68.70
2022-11-05T16:41:52.839Z,69.04
2022-11-05T16:44:19.170Z,69.21
2022-11-05T16:46:48.091Z,69.57
2022-11-05T16:49:14.634Z,69.95
2022-11-05T16:51:41.981Z,69.93
2022-11-05T16:54:08.699Z,69.79
2022-11-05T16:56:35.526Z,68.53
2022-11-05T16:59:02.266Z,68.24
2022-11-05T17:04:19.856Z,66.70
2022-11-05T17:06:46.285Z,67.10
2022-11-05T17:09:12.635Z,68.21
2022-11-05T17:11:39.457Z,69.38
2022-11-05T17:14:05.922Z,69.69
2022-11-05T17:16:32.228Z,69.50
2022-11-05T17:18:58.745Z,69.90
2022-11-05T17:21:25.039Z,70.06
2022-11-05T17:23:51.386Z,70.19
2022-11-05T17:26:17.777Z,71.63
2022-11-05T17:28:44.428Z,71.83
2022-11-05T17:31:12.910Z,72.12
2022-11-05T17:33:40.310Z,72.20
2022-11-05T17:36:13.145Z,72.28
2022-11-05T17:38:40.539Z,72.31
2022-11-05T17:41:14.239Z,72.57
2022-11-05T17:43:40.919Z,72.88
2022-11-05T17:46:09.945Z,72.91
2022-11-05T17:48:37.445Z,73.03
2022-11-05T17:51:04.462Z,73.05
2022-11-05T17:53:31.203Z,73.72
2022-11-05T17:55:57.615Z,73.74
2022-11-05T18:01:29.854Z,73.39
2022-11-05T18:03:57.231Z,74.38
2022-11-05T18:06:23.677Z,73.69
2022-11-05T18:08:50.195Z,73.64
2022-11-05T18:11:16.766Z,73.99
2022-11-05T18:13:43.501Z,74.37
2022-11-05T18:16:10.229Z,74.67
2022-11-05T18:18:36.712Z,73.95
2022-11-05T18:21:03.173Z,73.51
2022-11-05T18:23:29.629Z,73.60
2022-11-05T18:25:56.008Z,73.71
2022-11-05T18:28:22.710Z,73.14
2022-11-05T18:30:49.224Z,73.87
2022-11-05T18:33:15.692Z,73.90
2022-11-05T18:35:43.772Z,74.03
2022-11-05T18:38:11.122Z,73.57
2022-11-05T18:40:37.551Z,73.57
2022-11-05T18:43:03.918Z,73.83
2022-11-05T18:45:30.467Z,73.77
2022-11-05T18:47:56.957Z,73.52
2022-11-05T18:50:23.332Z,73.15
2022-11-05T18:52:49.725Z,73.21
2022-11-05T18:55:16.069Z,73.48
2022-11-05T18:57:42.466Z,73.18
2022-11-05T19:00:09.331Z,72.87
2022-11-05T19:02:35.927Z,72.86
2022-11-05T19:07:48.741Z,73.42
2022-11-05T19:10:15.867Z,73.48
2022-11-05T19:12:42.385Z,73.68
2022-11-05T19:15:09.503Z,74.08
2022-11-05T19:17:36.527Z,73.78
2022-11-05T19:20:04.124Z,74.18
2022-11-05T19:22:30.496Z,74.15
2022-11-05T19:24:56.822Z,74.22
2022-11-05T19:27:23.263Z,75.19
2022-11-05T19:29:49.694Z,74.80
2022-11-05T19:32:16.134Z,74.88
2022-11-05T19:34:42.658Z,74.88
2022-11-05T19:37:09.463Z,74.86
2022-11-05T19:39:35.892Z,75.26
2022-11-05T19:42:03.758Z,75.19
2022-11-05T19:44:30.499Z,75.15
2022-11-05T19:46:56.956Z,74.02
2022-11-05T19:49:23.447Z,74.13
2022-11-05T19:51:49.978Z,73.35
2022-11-05T19:54:17.022Z,73.18
2022-11-05T19:56:43.365Z,72.62
2022-11-05T19:59:11.091Z,71.53
2022-11-05T20:01:37.758Z,70.44
2022-11-05T20:04:04.727Z,71.79
2022-11-05T20:06:34.806Z,70.82
2022-11-05T20:11:55.009Z,72.15
2022-11-05T20:14:22.481Z,72.88
2022-11-05T20:16:50.151Z,73.35
2022-11-05T20:19:18.500Z,73.85
2022-11-05T20:21:45.393Z,74.42
2022-11-05T20:24:15.252Z,74.66
2022-11-05T20:26:45.154Z,74.66
2022-11-05T20:29:11.643Z,75.20
2022-11-05T20:31:37.950Z,75.23
2022-11-05T20:34:04.434Z,75.56
2022-11-05T20:36:30.750Z,75.75
2022-11-05T20:38:58.729Z,76.02
2022-11-05T20:41:26.011Z,76.33
2022-11-05T20:43:52.639Z,75.95
2022-11-05T20:46:20.922Z,76.03
2022-11-05T20:48:47.391Z,76.23
2022-11-05T20:51:19.830Z,76.42
2022-11-05T20:53:47.424Z,76.63
2022-11-05T20:56:18.845Z,76.84
2022-11-05T20:58:45.330Z,77.16
2022-11-05T21:01:13.184Z,77.33
2022-11-05T21:03:39.856Z,77.28
2022-11-05T21:06:06.282Z,77.36
2022-11-05T21:08:33.896Z,77.61
2022-11-05T21:11:00.582Z,77.24
2022-11-05T21:13:27.641Z,77.48
2022-11-05T21:15:56.929Z,77.21
2022-11-05T21:18:28.983Z,77.00
2022-11-05T21:20:55.714Z,77.19
2022-11-05T21:23:22.616Z,77.29
2022-11-05T21:25:48.967Z,77.39
2022-11-05T21:28:16.357Z,77.43
2022-11-05T21:30:44.966Z,77.13
2022-11-05T21:33:13.241Z,75.81
2022-11-05T21:35:43.912Z,75.55
2022-11-05T21:38:11.804Z,74.40
2022-11-05T21:40:38.967Z,74.97
2022-11-05T21:43:05.979Z,75.59
2022-11-05T21:45:32.913Z,75.70
2022-11-05T21:47:59.736Z,74.79
2022-11-05T21:50:26.135Z,74.67
2022-11-05T21:52:52.540Z,76.06
2022-11-05T21:55:18.880Z,75.72
2022-11-05T21:57:45.267Z,75.78
2022-11-05T22:00:12.518Z,76.41
2022-11-05T22:02:39.093Z,76.20
2022-11-05T22:05:06.920Z,76.83
2022-11-05T22:07:36.097Z,75.63
2022-11-05T22:10:05.995Z,75.62
2022-11-05T22:12:32.405Z,75.42
2022-11-05T22:14:58.727Z,74.67
2022-11-05T22:17:25.749Z,75.55
2022-11-05T22:19:52.342Z,75.47
2022-11-05T22:22:18.831Z,76.55
2022-11-05T22:24:45.407Z,76.46
2022-11-05T22:27:16.816Z,77.03
2022-11-05T22:29:43.916Z,77.20
2022-11-05T22:32:11.404Z,77.12
2022-11-05T22:34:38.139Z,76.85
2022-11-05T22:37:04.832Z,77.06
2022-11-05T22:39:31.512Z,75.59
2022-11-05T22:41:58.786Z,76.45
2022-11-05T22:44:26.481Z,76.34
2022-11-05T22:46:53.064Z,76.57
2022-11-05T22:49:19.570Z,77.05
2022-11-05T22:51:46.263Z,76.03
2022-11-05T22:54:12.812Z,76.12
2022-11-05T22:56:41.405Z,74.97
2022-11-05T22:59:11.040Z,75.68
2022-11-05T23:01:37.579Z,75.44
2022-11-05T23:04:04.503Z,74.62
2022-11-05T23:06:32.298Z,73.84
2022-11-05T23:08:59.713Z,74.28
2022-11-05T23:11:26.113Z,73.28
2022-11-05T23:13:52.588Z,72.81
2022-11-05T23:16:19.252Z,73.32
2022-11-05T23:18:45.593Z,73.35
2022-11-05T23:21:12.453Z,74.49
2022-11-05T23:23:38.858Z,75.22
2022-11-05T23:26:05.234Z,75.48
2022-11-05T23:28:31.686Z,75.95
2022-11-05T23:30:58.143Z,76.37
2022-11-05T23:33:25.231Z,77.39
2022-11-05T23:35:51.541Z,77.54
2022-11-05T23:38:17.852Z,78.17
2022-11-05T23:40:44.227Z,77.72
2022-11-05T23:43:10.709Z,78.08
2022-11-05T23:45:39.164Z,77.64
2022-11-05T23:48:15.309Z,77.06
2022-11-05T23:50:47.774Z,76.41
2022-11-05T23:53:14.428Z,77.15
2022-11-05T23:55:40.812Z,77.71
2022-11-05T23:58:07.602Z,78.01
